Time;durP1;ratioP1;P1;durP2;ratioP2;P2;SDS_P1;SDS_P2;PMS_P1;PMS_P2;Temp;Humidity;BMP_temperature;BMP_pressure;BME280_temperature;BME280_humidity;BME280_pressure;Samples;Min_cycle;Max_cycle;Signal;HPM_P1;HPM_P2
2024/03/14 00:00:07;;;;;;;4.03;3.72;;;;;;;;;;10275955;28;20473;-65
2024/03/14 00:05:11;;;;;;;4.40;4.00;;;;;;;;;;10277190;28;20083;-64
2024/03/14 00:10:10;;;;;;;4.82;4.43;;;;;;;;;;10272914;28;20080;-65
2024/03/14 00:15:11;;;;;;;4.75;4.35;;;;;;;;;;10243730;28;20061;-65
2024/03/14 00:20:12;;;;;;;4.60;4.20;;;;;;;;;;10247653;28;20147;-65
2024/03/14 00:25:10;;;;;;;4.53;4.18;;;;;;;;;;10248635;28;20084;-64
2024/03/14 00:30:11;;;;;;;4.43;4.03;;;;;;;;;;10258145;28;20045;-65
2024/03/14 00:35:12;;;;;;;4.20;3.90;;;;;;;;;;10257878;28;20076;-64
2024/03/14 00:40:11;;;;;;;4.75;4.38;;;;;;;;;;10253325;28;20471;-65
2024/03/14 00:45:10;;;;;;;4.13;3.72;;;;;;;;;;10251381;28;20491;-64
2024/03/14 00:50:10;;;;;;;4.18;3.88;;;;;;;;;;10254143;28;20060;-65
2024/03/14 00:55:09;;;;;;;3.90;3.60;;;;;;;;;;10252895;28;20081;-64
2024/03/14 01:00:11;;;;;;;4.72;4.32;;;;;;;;;;10254537;28;20087;-65
2024/03/14 01:05:12;;;;;;;4.25;3.85;;;;;;;;;;10254156;28;20087;-65
2024/03/14 01:10:11;;;;;;;4.53;4.22;;;;;;;;;;10250188;28;20080;-64
2024/03/14 01:15:13;;;;;;;4.15;3.80;;;;;;;;;;10249228;28;20069;-66
2024/03/14 01:20:11;;;;;;;4.72;4.32;;;;;;;;;;10244209;28;20067;-65
2024/03/14 01:25:10;;;;;;;4.95;4.55;;;;;;;;;;10245404;28;20478;-65
2024/03/14 01:30:12;;;;;;;4.78;4.38;;;;;;;;;;10248313;28;20073;-65
2024/03/14 01:35:11;;;;;;;4.97;4.57;;;;;;;;;;10248283;28;20065;-65
2024/03/14 01:40:12;;;;;;;4.85;4.47;;;;;;;;;;10250768;28;20057;-65
2024/03/14 01:45:14;;;;;;;4.47;4.18;;;;;;;;;;10249613;28;20103;-65
2024/03/14 01:50:14;;;;;;;4.55;4.18;;;;;;;;;;10246910;28;20496;-65
2024/03/14 01:55:13;;;;;;;4.28;3.95;;;;;;;;;;10247429;28;20127;-65
2024/03/14 02:00:13;;;;;;;4.40;4.05;;;;;;;;;;10245495;28;20076;-64
2024/03/14 02:05:13;;;;;;;4.20;3.90;;;;;;;;;;10246034;28;20080;-65
2024/03/14 02:10:12;;;;;;;4.35;4.05;;;;;;;;;;10227979;28;283282;-65
2024/03/14 02:15:12;;;;;;;4.75;4.35;;;;;;;;;;10222581;28;20069;-66
2024/03/14 02:20:14;;;;;;;4.47;4.07;;;;;;;;;;10266400;28;20545;-66
2024/03/14 02:25:14;;;;;;;4.50;4.13;;;;;;;;;;10235404;28;20077;-65
2024/03/14 02:30:12;;;;;;;4.57;4.10;;;;;;;;;;10235954;28;20057;-66
2024/03/14 02:35:11;;;;;;;5.57;4.57;;;;;;;;;;10232322;28;20057;-66
2024/03/14 02:40:11;;;;;;;4.13;3.83;;;;;;;;;;10234827;28;20431;-65
2024/03/14 02:45:10;;;;;;;4.60;4.20;;;;;;;;;;10238655;28;20084;-66
2024/03/14 02:50:09;;;;;;;5.15;4.75;;;;;;;;;;10236336;28;20069;-66
2024/03/14 02:55:08;;;;;;;5.18;4.78;;;;;;;;;;10234757;28;20076;-65
2024/03/14 03:00:15;;;;;;;4.30;4.00;;;;;;;;;;10238609;28;20076;-66
2024/03/14 03:05:14;;;;;;;4.75;4.35;;;;;;;;;;10238660;28;20459;-65
2024/03/14 03:10:13;;;;;;;6.35;5.00;;;;;;;;;;10272392;28;20513;-65
2024/03/14 03:15:11;;;;;;;5.20;4.80;;;;;;;;;;10277125;28;20075;-66
2024/03/14 03:20:11;;;;;;;4.72;4.32;;;;;;;;;;10274441;28;20065;-65
2024/03/14 03:25:10;;;;;;;5.15;4.70;;;;;;;;;;10275971;28;20076;-64
2024/03/14 03:30:11;;;;;;;5.07;4.68;;;;;;;;;;10276710;28;20068;-64
2024/03/14 03:35:11;;;;;;;4.70;4.30;;;;;;;;;;10276438;28;20158;-64
2024/03/14 03:40:15;;;;;;;5.45;4.95;;;;;;;;;;10274314;28;20078;-65
2024/03/14 03:45:13;;;;;;;5.28;4.85;;;;;;;;;;10275831;28;20568;-65
2024/03/14 03:50:11;;;;;;;5.47;4.97;;;;;;;;;;10276040;28;20079;-64
2024/03/14 03:55:16;;;;;;;5.32;4.88;;;;;;;;;;10274335;28;20071;-65
2024/03/14 04:05:42;;;;;;;5.55;5.05;;;;;;;;;;10199581;28;20079;-64
2024/03/14 04:10:44;;;;;;;4.90;4.50;;;;;;;;;;10274569;28;20596;-65
2024/03/14 04:15:42;;;;;;;4.75;4.35;;;;;;;;;;10276580;28;20079;-64
2024/03/14 04:20:41;;;;;;;3.60;3.30;;;;;;;;;;10274364;28;20076;-65
2024/03/14 04:25:40;;;;;;;5.72;5.22;;;;;;;;;;10276961;28;20546;-65
2024/03/14 04:30:39;;;;;;;4.93;4.53;;;;;;;;;;10276070;28;20068;-65
2024/03/14 04:35:37;;;;;;;5.10;4.70;;;;;;;;;;10275496;28;20075;-65
2024/03/14 04:40:36;;;;;;;4.90;4.50;;;;;;;;;;10274764;28;20139;-66
2024/03/14 04:45:35;;;;;;;4.60;4.18;;;;;;;;;;10273341;28;20069;-66
2024/03/14 04:50:34;;;;;;;4.30;3.90;;;;;;;;;;10273249;28;20114;-64
2024/03/14 04:55:33;;;;;;;6.30;4.50;;;;;;;;;;10306059;28;20073;-65
2024/03/14 05:00:32;;;;;;;3.50;3.20;;;;;;;;;;10274424;28;20092;-65
2024/03/14 05:05:31;;;;;;;4.15;3.83;;;;;;;;;;10276320;28;20076;-65
2024/03/14 05:10:31;;;;;;;5.60;5.10;;;;;;;;;;10315939;28;20087;-65
2024/03/14 05:15:31;;;;;;;5.80;5.30;;;;;;;;;;10315118;28;20517;-65
2024/03/14 05:20:29;;;;;;;4.85;4.45;;;;;;;;;;10280119;28;20064;-64
2024/03/14 05:25:28;;;;;;;4.90;4.50;;;;;;;;;;10282212;28;20502;-66
2024/03/14 05:30:26;;;;;;;4.55;4.15;;;;;;;;;;10283359;28;20084;-66
2024/03/14 05:35:25;;;;;;;4.82;4.43;;;;;;;;;;10280288;28;20068;-65
2024/03/14 05:40:23;;;;;;;6.53;4.75;;;;;;;;;;10279480;28;20543;-65
2024/03/14 05:45:21;;;;;;;5.30;4.68;;;;;;;;;;10280773;28;20072;-64
2024/03/14 05:50:20;;;;;;;5.38;4.90;;;;;;;;;;10277611;28;20083;-65
2024/03/14 05:55:18;;;;;;;5.32;4.93;;;;;;;;;;10275448;28;20564;-66
2024/03/14 06:00:20;;;;;;;5.55;5.07;;;;;;;;;;10276731;28;20083;-67
2024/03/14 06:05:19;;;;;;;5.30;4.80;;;;;;;;;;10284624;28;20072;-66
2024/03/14 06:10:18;;;;;;;5.55;5.05;;;;;;;;;;10274313;28;20487;-66
2024/03/14 06:15:18;;;;;;;8.98;5.50;;;;;;;;;;10274244;28;20068;-66
2024/03/14 06:20:18;;;;;;;6.65;5.97;;;;;;;;;;10270762;28;20057;-66
2024/03/14 06:25:16;;;;;;;6.80;6.05;;;;;;;;;;10278824;28;20056;-66
2024/03/14 06:30:15;;;;;;;7.25;6.55;;;;;;;;;;10277741;28;20083;-66
2024/03/14 06:35:17;;;;;;;6.30;5.78;;;;;;;;;;10278817;28;20064;-66
2024/03/14 06:40:17;;;;;;;9.35;8.55;;;;;;;;;;10277972;28;20068;-66
2024/03/14 06:45:16;;;;;;;5.45;4.50;;;;;;;;;;10277129;28;20138;-68
2024/03/14 06:50:14;;;;;;;3.85;3.55;;;;;;;;;;10285058;28;20079;-66
2024/03/14 06:55:14;;;;;;;4.85;4.45;;;;;;;;;;10279032;28;20064;-66
2024/03/14 07:00:16;;;;;;;5.30;4.80;;;;;;;;;;10284336;28;20068;-66
2024/03/14 07:05:16;;;;;;;5.78;5.07;;;;;;;;;;10290799;28;20076;-64
2024/03/14 07:10:16;;;;;;;5.45;4.97;;;;;;;;;;10275400;28;20548;-65
2024/03/14 07:15:14;;;;;;;23.67;8.23;;;;;;;;;;10276626;28;20072;-65
2024/03/14 07:20:18;;;;;;;5.32;4.82;;;;;;;;;;10309392;28;20080;-65
2024/03/14 07:25:18;;;;;;;5.10;4.63;;;;;;;;;;10278282;28;20106;-64
2024/03/14 07:30:17;;;;;;;5.72;5.22;;;;;;;;;;10274361;28;20170;-66
2024/03/14 07:35:17;;;;;;;4.97;4.50;;;;;;;;;;10273584;28;20064;-65
2024/03/14 07:40:17;;;;;;;4.60;4.20;;;;;;;;;;10277360;28;20076;-66
2024/03/14 07:45:17;;;;;;;4.50;4.10;;;;;;;;;;10284284;28;20076;-66
2024/03/14 07:50:17;;;;;;;4.28;3.88;;;;;;;;;;10275776;28;20068;-65
2024/03/14 07:55:16;;;;;;;4.53;4.13;;;;;;;;;;10276696;28;20071;-66
2024/03/14 08:00:33;;;;;;;4.47;4.18;;;;;;;;;;10276342;28;20079;-66
2024/03/14 08:05:33;;;;;;;4.78;4.38;;;;;;;;;;10278910;28;20460;-66
2024/03/14 08:10:32;;;;;;;3.72;3.45;;;;;;;;;;10274614;28;20087;-65
2024/03/14 08:15:36;;;;;;;3.13;2.92;;;;;;;;;;10269565;28;20092;-65
2024/03/14 08:20:36;;;;;;;3.60;3.30;;;;;;;;;;10270878;28;20079;-65
2024/03/14 08:25:37;;;;;;;3.72;3.30;;;;;;;;;;10258692;28;20080;-65
2024/03/14 08:30:38;;;;;;;4.32;3.92;;;;;;;;;;10270924;28;20071;-65
2024/03/14 08:35:42;;;;;;;3.85;3.55;;;;;;;;;;10273422;28;20064;-64
2024/03/14 08:40:41;;;;;;;4.70;4.30;;;;;;;;;;10279115;28;20083;-65
2024/03/14 08:45:40;;;;;;;4.50;4.10;;;;;;;;;;10276647;28;20319;-64
2024/03/14 08:50:40;;;;;;;3.92;3.63;;;;;;;;;;10284965;28;20075;-64
2024/03/14 08:55:45;;;;;;;4.95;4.45;;;;;;;;;;10282024;28;20072;-65
2024/03/14 09:00:44;;;;;;;4.30;3.90;;;;;;;;;;10282083;28;20529;-65
2024/03/14 09:05:42;;;;;;;3.78;3.47;;;;;;;;;;10287102;28;20076;-66
2024/03/14 09:10:41;;;;;;;4.40;4.00;;;;;;;;;;10279466;28;20094;-65
2024/03/14 09:15:39;;;;;;;4.65;4.25;;;;;;;;;;10314222;28;20072;-65
2024/03/14 09:20:38;;;;;;;4.07;3.78;;;;;;;;;;10282825;28;20068;-65
2024/03/14 09:25:37;;;;;;;4.90;4.50;;;;;;;;;;10280818;28;20068;-65
2024/03/14 09:30:36;;;;;;;4.82;4.10;;;;;;;;;;10281070;28;20064;-65
2024/03/14 09:35:41;;;;;;;4.55;4.15;;;;;;;;;;10285884;28;20087;-65
2024/03/14 09:40:39;;;;;;;4.85;4.45;;;;;;;;;;10279966;28;20068;-64
2024/03/14 09:45:38;;;;;;;3.42;3.13;;;;;;;;;;10262487;28;20576;-64
2024/03/14 09:50:38;;;;;;;4.35;3.95;;;;;;;;;;10282477;28;20548;-65
2024/03/14 09:55:37;;;;;;;3.72;3.42;;;;;;;;;;10277484;28;20069;-64
2024/03/14 10:00:36;;;;;;;4.18;3.88;;;;;;;;;;10280804;28;20100;-64
2024/03/14 10:05:35;;;;;;;5.03;3.17;;;;;;;;;;10277191;28;20075;-66
2024/03/14 10:10:37;;;;;;;10.57;6.93;;;;;;;;;;10276675;28;20496;-65
2024/03/14 10:15:37;;;;;;;4.45;4.05;;;;;;;;;;10280523;28;20075;-66
2024/03/14 10:20:37;;;;;;;5.13;4.72;;;;;;;;;;10280450;28;20461;-66
2024/03/14 10:25:38;;;;;;;7.63;6.95;;;;;;;;;;10267013;28;20052;-65
2024/03/14 10:30:37;;;;;;;6.10;5.60;;;;;;;;;;10278933;28;20082;-65
2024/03/14 10:35:36;;;;;;;4.00;3.55;;;;;;;;;;10275708;28;20072;-65
2024/03/14 10:40:37;;;;;;;2.75;2.55;;;;;;;;;;10279201;28;20080;-66
2024/03/14 10:45:36;;;;;;;4.05;3.65;;;;;;;;;;10275895;28;20106;-65
2024/03/14 10:50:36;;;;;;;4.43;3.85;;;;;;;;;;10278731;28;20084;-63
2024/03/14 10:55:36;;;;;;;6.00;4.97;;;;;;;;;;10284434;28;20082;-63
2024/03/14 11:00:35;;;;;;;4.55;4.15;;;;;;;;;;10282997;28;20088;-64
2024/03/14 11:05:33;;;;;;;3.40;3.10;;;;;;;;;;10278831;28;20073;-62
2024/03/14 11:10:32;;;;;;;3.50;3.20;;;;;;;;;;10277575;28;20092;-62
2024/03/14 11:15:30;;;;;;;4.25;3.85;;;;;;;;;;10308158;28;20533;-62
2024/03/14 11:20:29;;;;;;;5.25;2.95;;;;;;;;;;10275022;28;20076;-62
2024/03/14 11:25:27;;;;;;;3.40;2.85;;;;;;;;;;10280093;28;20099;-61
2024/03/14 11:30:26;;;;;;;3.63;3.33;;;;;;;;;;10274416;28;20076;-62
2024/03/14 11:35:34;;;;;;;4.50;4.10;;;;;;;;;;10270101;28;20071;-62
2024/03/14 11:40:33;;;;;;;4.97;4.45;;;;;;;;;;10277157;28;20111;-62
2024/03/14 11:45:32;;;;;;;4.80;4.40;;;;;;;;;;10273347;28;20079;-61
2024/03/14 11:50:33;;;;;;;5.65;5.05;;;;;;;;;;10308695;28;20091;-62
2024/03/14 11:55:32;;;;;;;7.10;4.05;;;;;;;;;;10274648;28;20079;-62
2024/03/14 12:00:32;;;;;;;5.20;4.80;;;;;;;;;;10276641;28;20076;-64
2024/03/14 12:05:32;;;;;;;5.00;4.60;;;;;;;;;;10274072;28;20076;-63
2024/03/14 12:10:31;;;;;;;5.30;4.47;;;;;;;;;;10294049;28;20382;-62
2024/03/14 12:15:35;;;;;;;5.25;4.75;;;;;;;;;;10307865;28;20087;-62
2024/03/14 12:20:33;;;;;;;5.72;5.18;;;;;;;;;;10280587;28;20075;-62
2024/03/14 12:25:35;;;;;;;8.95;8.02;;;;;;;;;;10281360;28;20091;-63
2024/03/14 12:30:37;;;;;;;18.48;16.00;;;;;;;;;;10283729;28;20076;-62
2024/03/14 12:35:38;;;;;;;9.70;8.80;;;;;;;;;;10280080;28;20098;-62
2024/03/14 12:40:36;;;;;;;20.08;14.50;;;;;;;;;;10281461;28;20699;-61
2024/03/14 12:45:35;;;;;;;7.70;7.00;;;;;;;;;;10283413;28;20064;-61
2024/03/14 12:50:33;;;;;;;17.25;15.50;;;;;;;;;;10283580;28;20087;-60
2024/03/14 12:55:38;;;;;;;6.55;5.90;;;;;;;;;;10280329;28;20481;-62
2024/03/14 13:00:37;;;;;;;6.80;6.10;;;;;;;;;;10309117;28;20073;-62
2024/03/14 13:05:36;;;;;;;6.10;5.03;;;;;;;;;;10276975;28;20076;-61
2024/03/14 13:10:38;;;;;;;5.53;4.40;;;;;;;;;;10279319;28;20080;-62
2024/03/14 13:15:39;;;;;;;6.88;6.25;;;;;;;;;;10278414;28;20083;-61
2024/03/14 13:20:37;;;;;;;6.97;6.28;;;;;;;;;;10292923;28;20076;-62
2024/03/14 13:25:36;;;;;;;5.90;5.40;;;;;;;;;;10279209;28;20083;-62
2024/03/14 13:30:35;;;;;;;10.82;7.10;;;;;;;;;;10313793;28;20166;-62
2024/03/14 13:35:38;;;;;;;12.68;10.93;;;;;;;;;;10281842;28;20073;-63
2024/03/14 13:40:37;;;;;;;13.48;11.05;;;;;;;;;;10281094;28;20071;-63
2024/03/14 13:45:35;;;;;;;8.35;6.03;;;;;;;;;;10282608;28;20076;-63
2024/03/14 13:50:35;;;;;;;7.10;6.10;;;;;;;;;;10277918;28;20112;-62
2024/03/14 13:55:36;;;;;;;7.00;5.30;;;;;;;;;;10278078;28;20494;-62
2024/03/14 14:00:46;;;;;;;8.00;7.10;;;;;;;;;;10280725;28;20072;-62
2024/03/14 14:05:45;;;;;;;8.80;7.90;;;;;;;;;;10277487;28;20064;-62
2024/03/14 14:10:47;;;;;;;12.20;9.80;;;;;;;;;;10274929;28;20088;-62
2024/03/14 14:15:45;;;;;;;8.60;7.28;;;;;;;;;;10274457;28;20079;-62
2024/03/14 14:20:44;;;;;;;13.57;12.13;;;;;;;;;;10278266;28;20291;-62
2024/03/14 14:25:44;;;;;;;10.63;9.52;;;;;;;;;;10284390;28;20076;-62
2024/03/14 14:30:43;;;;;;;25.48;20.00;;;;;;;;;;10285304;28;20079;-61
2024/03/14 14:35:44;;;;;;;8.73;7.55;;;;;;;;;;10276323;28;20486;-62
2024/03/14 14:40:43;;;;;;;23.15;16.27;;;;;;;;;;10277122;28;20140;-62
2024/03/14 14:45:41;;;;;;;15.15;12.40;;;;;;;;;;10278357;28;20060;-61
2024/03/14 14:50:40;;;;;;;14.82;8.35;;;;;;;;;;10275546;28;20084;-61
2024/03/14 14:55:40;;;;;;;14.60;11.18;;;;;;;;;;10272421;28;20490;-62
2024/03/14 15:00:39;;;;;;;37.92;22.77;;;;;;;;;;10278926;28;20541;-63
2024/03/14 15:05:38;;;;;;;16.52;13.05;;;;;;;;;;10275514;28;20065;-62
2024/03/14 15:10:37;;;;;;;50.75;30.33;;;;;;;;;;10273812;28;20088;-62
2024/03/14 15:15:38;;;;;;;72.00;39.40;;;;;;;;;;10273807;28;20088;-62
2024/03/14 15:20:37;;;;;;;25.65;18.63;;;;;;;;;;10274788;28;20076;-62
2024/03/14 15:25:37;;;;;;;10.30;9.15;;;;;;;;;;10272513;28;20064;-62
2024/03/14 15:30:36;;;;;;;18.80;15.60;;;;;;;;;;10275712;28;20079;-63
2024/03/14 15:35:35;;;;;;;23.95;17.88;;;;;;;;;;10277424;28;20072;-63
2024/03/14 15:40:33;;;;;;;11.38;9.38;;;;;;;;;;10274350;28;20075;-62
2024/03/14 15:45:32;;;;;;;15.35;11.63;;;;;;;;;;10276664;28;20079;-61
2024/03/14 15:50:32;;;;;;;15.80;11.85;;;;;;;;;;10275077;28;20085;-62
2024/03/14 15:55:31;;;;;;;7.15;6.32;;;;;;;;;;10274556;28;20071;-62
2024/03/14 16:00:31;;;;;;;13.75;12.00;;;;;;;;;;10274624;28;20510;-62
2024/03/14 16:05:30;;;;;;;15.45;12.02;;;;;;;;;;10270601;28;20075;-63
2024/03/14 16:10:30;;;;;;;14.45;10.55;;;;;;;;;;10271739;28;21023;-62
2024/03/14 16:15:28;;;;;;;11.07;9.60;;;;;;;;;;10273147;28;20079;-63
2024/03/14 16:20:31;;;;;;;10.90;8.68;;;;;;;;;;10274380;28;20072;-62
2024/03/14 16:25:35;;;;;;;11.30;9.05;;;;;;;;;;10277356;28;20072;-60
2024/03/14 16:30:37;;;;;;;12.15;10.95;;;;;;;;;;10276465;28;20075;-61
2024/03/14 16:35:35;;;;;;;26.52;20.88;;;;;;;;;;10275191;28;20064;-61
2024/03/14 16:40:34;;;;;;;26.48;23.73;;;;;;;;;;10276655;28;20072;-61
2024/03/14 16:45:33;;;;;;;23.27;20.73;;;;;;;;;;10273883;28;20083;-61
2024/03/14 16:50:33;;;;;;;25.23;21.20;;;;;;;;;;10269376;28;20080;-61
2024/03/14 16:55:31;;;;;;;24.40;20.13;;;;;;;;;;10268954;28;20577;-61
2024/03/14 17:00:31;;;;;;;15.02;13.15;;;;;;;;;;10278775;28;20731;-62
2024/03/14 17:05:32;;;;;;;13.60;11.13;;;;;;;;;;10282368;28;20076;-62
2024/03/14 17:10:30;;;;;;;26.80;19.45;;;;;;;;;;10286139;28;20080;-62
2024/03/14 17:15:30;;;;;;;25.75;21.05;;;;;;;;;;10295183;28;20080;-61
2024/03/14 17:20:30;;;;;;;13.73;12.32;;;;;;;;;;10278897;28;20073;-61
2024/03/14 17:25:28;;;;;;;14.13;12.15;;;;;;;;;;10283449;28;20083;-61
2024/03/14 17:30:27;;;;;;;19.20;16.15;;;;;;;;;;10291660;28;20068;-62
2024/03/14 17:35:26;;;;;;;19.25;14.07;;;;;;;;;;10273666;28;20100;-62
2024/03/14 17:40:25;;;;;;;15.77;11.55;;;;;;;;;;10281840;28;20065;-61
2024/03/14 17:45:25;;;;;;;17.08;13.68;;;;;;;;;;10293372;28;20072;-62
2024/03/14 17:50:31;;;;;;;17.88;15.25;;;;;;;;;;10289943;28;20060;-62
2024/03/14 17:55:31;;;;;;;39.72;30.10;;;;;;;;;;10287320;28;20533;-62
2024/03/14 18:00:29;;;;;;;42.53;31.90;;;;;;;;;;10278380;28;20162;-63
2024/03/14 18:05:28;;;;;;;33.42;29.48;;;;;;;;;;10288645;28;20091;-63
2024/03/14 18:10:28;;;;;;;63.38;46.67;;;;;;;;;;10288443;28;20076;-61
2024/03/14 18:15:27;;;;;;;48.90;36.20;;;;;;;;;;10287081;28;20068;-62
2024/03/14 18:20:26;;;;;;;39.55;25.60;;;;;;;;;;10275875;28;20075;-62
2024/03/14 18:25:25;;;;;;;36.05;32.17;;;;;;;;;;10282411;28;20462;-62
2024/03/14 18:30:25;;;;;;;49.20;42.22;;;;;;;;;;10279098;28;20539;-62
2024/03/14 18:35:23;;;;;;;42.45;37.65;;;;;;;;;;10281262;28;20494;-62
2024/03/14 18:40:25;;;;;;;24.88;21.02;;;;;;;;;;10287548;28;20065;-61
2024/03/14 18:45:26;;;;;;;35.92;32.13;;;;;;;;;;10283633;28;20068;-61
2024/03/14 18:50:25;;;;;;;40.70;34.83;;;;;;;;;;10279966;28;20084;-62
2024/03/14 18:55:24;;;;;;;46.42;39.55;;;;;;;;;;10283491;28;20568;-61
2024/03/14 19:00:25;;;;;;;31.98;28.52;;;;;;;;;;10273437;28;20076;-62
2024/03/14 19:05:28;;;;;;;32.53;26.83;;;;;;;;;;10277377;28;20072;-61
2024/03/14 19:10:26;;;;;;;32.15;26.25;;;;;;;;;;10275515;28;20079;-62
2024/03/14 19:15:29;;;;;;;31.27;24.58;;;;;;;;;;10273951;28;20064;-62
2024/03/14 19:20:27;;;;;;;74.53;51.90;;;;;;;;;;10274570;28;20072;-62
2024/03/14 19:25:26;;;;;;;62.65;49.25;;;;;;;;;;10272171;28;20064;-62
2024/03/14 19:30:25;;;;;;;62.22;49.72;;;;;;;;;;10277202;28;20068;-62
2024/03/14 19:35:25;;;;;;;42.17;35.40;;;;;;;;;;10272028;28;20532;-62
2024/03/14 19:40:25;;;;;;;33.90;27.48;;;;;;;;;;10275035;28;20505;-62
2024/03/14 19:45:24;;;;;;;33.83;28.13;;;;;;;;;;10271120;28;20072;-61
2024/03/14 19:50:23;;;;;;;53.40;45.08;;;;;;;;;;10274019;28;20067;-62
2024/03/14 19:55:21;;;;;;;46.17;41.03;;;;;;;;;;10275988;28;20524;-60
2024/03/14 20:00:20;;;;;;;27.23;24.23;;;;;;;;;;10279390;28;20068;-61
2024/03/14 20:05:19;;;;;;;20.85;18.58;;;;;;;;;;10277899;28;20484;-62
2024/03/14 20:10:24;;;;;;;56.42;43.88;;;;;;;;;;10272148;28;20513;-62
2024/03/14 20:15:22;;;;;;;;;;;;;;;;;;10275926;28;20071;-61
2024/03/14 20:20:21;;;;;;;17.48;14.88;;;;;;;;;;10294864;28;19960;-62
2024/03/14 20:25:22;;;;;;;16.70;13.75;;;;;;;;;;10281191;28;20085;-62
2024/03/14 20:30:22;;;;;;;14.85;13.38;;;;;;;;;;10280318;28;20075;-62
2024/03/14 20:35:22;;;;;;;18.63;16.75;;;;;;;;;;10273675;28;20144;-60
2024/03/14 20:40:21;;;;;;;15.10;13.68;;;;;;;;;;10285105;28;20064;-63
2024/03/14 20:45:35;;;;;;;14.40;13.00;;;;;;;;;;10290146;28;20076;-63
2024/03/14 20:50:33;;;;;;;13.00;11.60;;;;;;;;;;10286332;28;20087;-61
2024/03/14 20:55:32;;;;;;;10.05;9.15;;;;;;;;;;10270053;28;20099;-60
2024/03/14 21:00:31;;;;;;;10.70;9.70;;;;;;;;;;10315457;28;20501;-62
2024/03/14 21:05:29;;;;;;;11.45;10.02;;;;;;;;;;10287325;28;20483;-61
2024/03/14 21:10:33;;;;;;;14.23;11.85;;;;;;;;;;10282764;28;20075;-61
2024/03/14 21:15:32;;;;;;;13.67;11.13;;;;;;;;;;10282570;28;20087;-61
2024/03/14 21:20:31;;;;;;;12.30;10.57;;;;;;;;;;10291672;28;20530;-61
2024/03/14 21:25:29;;;;;;;11.23;9.40;;;;;;;;;;10288633;28;20063;-60
2024/03/14 21:30:28;;;;;;;9.75;8.75;;;;;;;;;;10301543;28;20071;-61
2024/03/14 21:35:27;;;;;;;9.63;8.25;;;;;;;;;;10287579;28;20068;-62
2024/03/14 21:40:25;;;;;;;11.82;9.10;;;;;;;;;;10283509;28;20104;-61
2024/03/14 21:45:24;;;;;;;12.68;8.70;;;;;;;;;;10284816;28;20068;-61
2024/03/14 21:50:23;;;;;;;8.95;7.75;;;;;;;;;;10292611;28;20480;-60
2024/03/14 21:55:21;;;;;;;8.65;7.75;;;;;;;;;;10299785;28;20065;-60
2024/03/14 22:00:20;;;;;;;9.77;8.77;;;;;;;;;;10281562;28;20465;-62
2024/03/14 22:05:19;;;;;;;10.13;8.20;;;;;;;;;;10287582;28;20068;-61
2024/03/14 22:10:18;;;;;;;12.25;10.15;;;;;;;;;;10281633;28;20122;-61
2024/03/14 22:15:17;;;;;;;11.32;8.48;;;;;;;;;;10284658;28;20080;-61
2024/03/14 22:20:20;;;;;;;10.10;8.73;;;;;;;;;;10279364;28;20076;-61
2024/03/14 22:25:19;;;;;;;9.60;8.60;;;;;;;;;;10284024;28;20075;-61
2024/03/14 22:30:17;;;;;;;11.25;9.77;;;;;;;;;;10290452;28;20103;-61
2024/03/14 22:35:16;;;;;;;11.38;8.18;;;;;;;;;;10281318;28;20071;-61
2024/03/14 22:40:14;;;;;;;11.05;9.80;;;;;;;;;;10274717;28;20375;-61
2024/03/14 22:45:13;;;;;;;9.23;8.32;;;;;;;;;;10286357;28;20529;-63
2024/03/14 22:50:11;;;;;;;10.23;9.15;;;;;;;;;;10278488;28;20072;-63
2024/03/14 22:55:10;;;;;;;12.18;9.90;;;;;;;;;;10279238;28;20073;-63
2024/03/14 23:00:18;;;;;;;11.00;9.93;;;;;;;;;;10278671;28;20528;-60
2024/03/14 23:05:20;;;;;;;10.98;9.80;;;;;;;;;;10284974;28;20070;-62
2024/03/14 23:10:19;;;;;;;10.70;9.60;;;;;;;;;;10280540;28;20083;-63
2024/03/14 23:15:19;;;;;;;10.77;9.70;;;;;;;;;;10269130;28;20680;-63
2024/03/14 23:20:18;;;;;;;9.75;8.75;;;;;;;;;;10277954;28;20450;-62
2024/03/14 23:25:18;;;;;;;10.68;7.47;;;;;;;;;;10276737;28;20064;-62
2024/03/14 23:30:17;;;;;;;14.77;8.25;;;;;;;;;;10270910;28;20106;-64
2024/03/14 23:35:16;;;;;;;6.75;6.05;;;;;;;;;;10277801;28;20088;-63
2024/03/14 23:40:14;;;;;;;7.20;6.40;;;;;;;;;;10272671;28;20225;-63
2024/03/14 23:45:17;;;;;;;7.43;6.80;;;;;;;;;;10273422;28;20082;-63
2024/03/14 23:50:19;;;;;;;8.35;7.55;;;;;;;;;;10276725;28;20073;-63
2024/03/14 23:55:19;;;;;;;7.40;6.78;;;;;;;;;;10276109;28;20072;-63
